sensor_id;sensor_type;location;lat;lon;timestamp;pressure;altitude;pressure_sealevel;temperature
74915;BMP280;63475;45.140;-75.616;2022-12-18T00:00:27;99611.00;;;1.25
74915;BMP280;63475;45.140;-75.616;2022-12-18T00:01:33;99616.59;;;1.27
74915;BMP280;63475;45.140;-75.616;2022-12-18T00:02:34;99623.69;;;1.26
74915;BMP280;63475;45.140;-75.616;2022-12-18T00:03:35;99614.75;;;1.27
74915;BMP280;63475;45.140;-75.616;2022-12-18T00:04:36;99620.31;;;1.26
74915;BMP280;63475;45.140;-75.616;2022-12-18T00:05:37;99617.34;;;1.27
74915;BMP280;63475;45.140;-75.616;2022-12-18T00:06:38;99597.06;;;1.10
74915;BMP280;63475;45.140;-75.616;2022-12-18T00:07:39;99612.13;;;1.27
74915;BMP280;63475;45.140;-75.616;2022-12-18T00:08:41;99612.13;;;1.27
74915;BMP280;63475;45.140;-75.616;2022-12-18T00:09:42;99595.22;;;1.11
74915;BMP280;63475;45.140;-75.616;2022-12-18T00:10:43;99622.53;;;1.24
74915;BMP280;63475;45.140;-75.616;2022-12-18T00:11:45;99582.03;;;1.00
74915;BMP280;63475;45.140;-75.616;2022-12-18T00:12:45;99619.16;;;1.23
74915;BMP280;63475;45.140;-75.616;2022-12-18T00:13:47;99619.56;;;1.25
74915;BMP280;63475;45.140;-75.616;2022-12-18T00:14:48;99586.53;;;1.03
74915;BMP280;63475;45.140;-75.616;2022-12-18T00:15:49;99611.34;;;1.23
74915;BMP280;63475;45.140;-75.616;2022-12-18T00:16:50;99609.81;;;1.19
74915;BMP280;63475;45.140;-75.616;2022-12-18T00:17:51;99570.81;;;0.96
74915;BMP280;63475;45.140;-75.616;2022-12-18T00:18:54;99600.41;;;1.11
74915;BMP280;63475;45.140;-75.616;2022-12-18T00:19:55;99614.34;;;1.25
74915;BMP280;63475;45.140;-75.616;2022-12-18T00:21:01;99612.50;;;1.26
74915;BMP280;63475;45.140;-75.616;2022-12-18T00:22:03;99616.56;;;1.23
74915;BMP280;63475;45.140;-75.616;2022-12-18T00:23:05;99617.28;;;1.20
74915;BMP280;63475;45.140;-75.616;2022-12-18T00:24:06;99612.00;;;1.17
74915;BMP280;63475;45.140;-75.616;2022-12-18T00:25:07;99610.50;;;1.16
74915;BMP280;63475;45.140;-75.616;2022-12-18T00:26:19;99612.75;;;1.17
74915;BMP280;63475;45.140;-75.616;2022-12-18T00:27:20;99606.03;;;1.13
74915;BMP280;63475;45.140;-75.616;2022-12-18T00:28:21;99614.22;;;1.15
74915;BMP280;63475;45.140;-75.616;2022-12-18T00:29:22;99585.41;;;1.00
74915;BMP280;63475;45.140;-75.616;2022-12-18T00:30:23;99609.00;;;1.11
74915;BMP280;63475;45.140;-75.616;2022-12-18T00:31:25;99614.25;;;1.18
74915;BMP280;63475;45.140;-75.616;2022-12-18T00:32:26;99594.41;;;1.07
74915;BMP280;63475;45.140;-75.616;2022-12-18T00:33:27;99566.94;;;0.86
74915;BMP280;63475;45.140;-75.616;2022-12-18T00:34:28;99616.13;;;1.18
74915;BMP280;63475;45.140;-75.616;2022-12-18T00:35:29;99583.91;;;0.99
74915;BMP280;63475;45.140;-75.616;2022-12-18T00:36:33;99610.50;;;1.12
74915;BMP280;63475;45.140;-75.616;2022-12-18T00:37:34;99608.25;;;1.14
74915;BMP280;63475;45.140;-75.616;2022-12-18T00:38:35;99612.00;;;1.17
74915;BMP280;63475;45.140;-75.616;2022-12-18T00:39:37;99619.09;;;1.16
74915;BMP280;63475;45.140;-75.616;2022-12-18T00:40:37;99608.63;;;1.13
74915;BMP280;63475;45.140;-75.616;2022-12-18T00:41:38;99601.47;;;1.06
74915;BMP280;63475;45.140;-75.616;2022-12-18T00:42:58;99616.47;;;1.13
74915;BMP280;63475;45.140;-75.616;2022-12-18T00:43:58;99609.00;;;1.11
74915;BMP280;63475;45.140;-75.616;2022-12-18T00:44:59;99611.63;;;1.15
74915;BMP280;63475;45.140;-75.616;2022-12-18T00:46:00;99608.63;;;1.13
74915;BMP280;63475;45.140;-75.616;2022-12-18T00:47:01;99606.00;;;1.09
74915;BMP280;63475;45.140;-75.616;2022-12-18T00:48:02;99607.50;;;1.10
74915;BMP280;63475;45.140;-75.616;2022-12-18T00:49:03;99589.00;;;0.92
74915;BMP280;63475;45.140;-75.616;2022-12-18T00:50:05;99609.69;;;1.08
74915;BMP280;63475;45.140;-75.616;2022-12-18T00:51:06;99577.38;;;0.86
74915;BMP280;63475;45.140;-75.616;2022-12-18T00:52:09;99608.19;;;1.07
74915;BMP280;63475;45.140;-75.616;2022-12-18T00:53:10;99605.59;;;1.07
74915;BMP280;63475;45.140;-75.616;2022-12-18T00:54:11;99594.69;;;0.98
74915;BMP280;63475;45.140;-75.616;2022-12-18T00:55:13;99602.59;;;1.05
74915;BMP280;63475;45.140;-75.616;2022-12-18T00:56:15;99608.94;;;1.08
74915;BMP280;63475;45.140;-75.616;2022-12-18T00:57:16;99610.81;;;1.07
74915;BMP280;63475;45.140;-75.616;2022-12-18T00:58:17;99576.28;;;0.87
74915;BMP280;63475;45.140;-75.616;2022-12-18T00:59:18;99575.91;;;0.89
74915;BMP280;63475;45.140;-75.616;2022-12-18T01:00:20;99607.44;;;1.07
74915;BMP280;63475;45.140;-75.616;2022-12-18T01:01:21;99596.19;;;0.99
74915;BMP280;63475;45.140;-75.616;2022-12-18T01:02:22;99564.63;;;0.78
74915;BMP280;63475;45.140;-75.616;2022-12-18T01:03:22;99570.63;;;0.82
74915;BMP280;63475;45.140;-75.616;2022-12-18T01:04:23;99614.16;;;1.08
74915;BMP280;63475;45.140;-75.616;2022-12-18T01:05:24;99599.94;;;1.01
74915;BMP280;63475;45.140;-75.616;2022-12-18T01:06:25;99613.41;;;1.07
74915;BMP280;63475;45.140;-75.616;2022-12-18T01:07:26;99598.75;;;0.95
74915;BMP280;63475;45.140;-75.616;2022-12-18T01:08:27;99596.81;;;0.92
74915;BMP280;63475;45.140;-75.616;2022-12-18T01:09:28;99617.88;;;1.07
74915;BMP280;63475;45.140;-75.616;2022-12-18T01:10:29;99618.22;;;1.05
74915;BMP280;63475;45.140;-75.616;2022-12-18T01:11:30;99608.91;;;1.04
74915;BMP280;63475;45.140;-75.616;2022-12-18T01:12:31;99607.75;;;1.01
74915;BMP280;63475;45.140;-75.616;2022-12-18T01:13:32;99620.84;;;1.05
74915;BMP280;63475;45.140;-75.616;2022-12-18T01:14:33;99592.66;;;0.88
74915;BMP280;63475;45.140;-75.616;2022-12-18T01:15:34;99619.72;;;1.06
74915;BMP280;63475;45.140;-75.616;2022-12-18T01:16:35;99615.28;;;1.07
74915;BMP280;63475;45.140;-75.616;2022-12-18T01:17:36;99609.69;;;1.08
74915;BMP280;63475;45.140;-75.616;2022-12-18T01:18:37;99595.44;;;0.98
74915;BMP280;63475;45.140;-75.616;2022-12-18T01:19:38;99534.81;;;0.49
74915;BMP280;63475;45.140;-75.616;2022-12-18T01:20:39;99614.88;;;1.04
74915;BMP280;63475;45.140;-75.616;2022-12-18T01:21:40;99617.47;;;1.04
74915;BMP280;63475;45.140;-75.616;2022-12-18T01:22:41;99610.75;;;1.03
74915;BMP280;63475;45.140;-75.616;2022-12-18T01:23:41;99605.16;;;1.01
74915;BMP280;63475;45.140;-75.616;2022-12-18T01:24:42;99590.81;;;0.88
74915;BMP280;63475;45.140;-75.616;2022-12-18T01:25:43;99584.84;;;0.88
74915;BMP280;63475;45.140;-75.616;2022-12-18T01:26:44;99608.88;;;1.00
74915;BMP280;63475;45.140;-75.616;2022-12-18T01:27:45;99599.19;;;1.01
74915;BMP280;63475;45.140;-75.616;2022-12-18T01:28:46;99578.44;;;0.82
74915;BMP280;63475;45.140;-75.616;2022-12-18T01:29:47;99611.13;;;1.02
74915;BMP280;63475;45.140;-75.616;2022-12-18T01:30:48;99579.59;;;0.84
74915;BMP280;63475;45.140;-75.616;2022-12-18T01:31:49;99582.94;;;0.85
74915;BMP280;63475;45.140;-75.616;2022-12-18T01:32:50;99602.47;;;0.94
74915;BMP280;63475;45.140;-75.616;2022-12-18T01:33:51;99605.84;;;0.98
74915;BMP280;63475;45.140;-75.616;2022-12-18T01:34:52;99609.63;;;1.01
74915;BMP280;63475;45.140;-75.616;2022-12-18T01:35:53;99592.78;;;0.95
74915;BMP280;63475;45.140;-75.616;2022-12-18T01:36:54;99596.59;;;1.01
74915;BMP280;63475;45.140;-75.616;2022-12-18T01:37:58;99598.38;;;0.97
74915;BMP280;63475;45.140;-75.616;2022-12-18T01:39:01;99608.88;;;1.00
74915;BMP280;63475;45.140;-75.616;2022-12-18T01:40:03;99600.66;;;0.98
74915;BMP280;63475;45.140;-75.616;2022-12-18T01:41:04;99601.41;;;0.99
74915;BMP280;63475;45.140;-75.616;2022-12-18T01:42:11;99606.56;;;0.95
74915;BMP280;63475;45.140;-75.616;2022-12-18T01:43:12;99592.25;;;0.86
74915;BMP280;63475;45.140;-75.616;2022-12-18T01:45:48;99602.81;;;0.93
74915;BMP280;63475;45.140;-75.616;2022-12-18T01:46:49;99582.53;;;0.79
74915;BMP280;63475;45.140;-75.616;2022-12-18T01:47:55;99602.84;;;0.96
74915;BMP280;63475;45.140;-75.616;2022-12-18T01:48:59;99596.50;;;0.94
74915;BMP280;63475;45.140;-75.616;2022-12-18T01:50:15;99599.69;;;0.84
74915;BMP280;63475;45.140;-75.616;2022-12-18T01:51:17;99593.75;;;0.87
74915;BMP280;63475;45.140;-75.616;2022-12-18T01:52:19;99556.22;;;0.61
74915;BMP280;63475;45.140;-75.616;2022-12-18T01:53:22;99605.00;;;0.91
74915;BMP280;63475;45.140;-75.616;2022-12-18T01:54:23;99593.06;;;0.90
74915;BMP280;63475;45.140;-75.616;2022-12-18T01:55:27;99583.97;;;0.77
74915;BMP280;63475;45.140;-75.616;2022-12-18T01:56:29;99582.78;;;0.70
74915;BMP280;63475;45.140;-75.616;2022-12-18T01:57:31;99605.69;;;0.88
74915;BMP280;63475;45.140;-75.616;2022-12-18T01:58:43;99598.22;;;0.86
74915;BMP280;63475;45.140;-75.616;2022-12-18T01:59:50;99605.69;;;0.88
74915;BMP280;63475;45.140;-75.616;2022-12-18T02:00:54;99584.69;;;0.73
74915;BMP280;63475;45.140;-75.616;2022-12-18T02:01:55;99595.56;;;0.83
74915;BMP280;63475;45.140;-75.616;2022-12-18T02:02:57;99598.63;;;0.88
74915;BMP280;63475;45.140;-75.616;2022-12-18T02:04:21;99596.00;;;0.88
74915;BMP280;63475;45.140;-75.616;2022-12-18T02:06:40;99596.38;;;0.87
74915;BMP280;63475;45.140;-75.616;2022-12-18T02:07:55;99600.44;;;0.84
74915;BMP280;63475;45.140;-75.616;2022-12-18T02:09:38;99601.88;;;0.82
74915;BMP280;63475;45.140;-75.616;2022-12-18T02:11:05;99599.63;;;0.80
74915;BMP280;63475;45.140;-75.616;2022-12-18T02:14:56;99558.25;;;0.49
74915;BMP280;63475;45.140;-75.616;2022-12-18T02:16:05;99603.00;;;0.81
74915;BMP280;63475;45.140;-75.616;2022-12-18T02:17:17;99578.59;;;0.62
74915;BMP280;63475;45.140;-75.616;2022-12-18T02:18:24;99588.69;;;0.67
74915;BMP280;63475;45.140;-75.616;2022-12-18T02:20:05;99606.34;;;0.78
74915;BMP280;63475;45.140;-75.616;2022-12-18T02:26:36;99605.22;;;0.79
74915;BMP280;63475;45.140;-75.616;2022-12-18T02:27:42;99602.94;;;0.73
74915;BMP280;63475;45.140;-75.616;2022-12-18T02:28:52;99605.53;;;0.73
74915;BMP280;63475;45.140;-75.616;2022-12-18T02:29:55;99562.28;;;0.42
74915;BMP280;63475;45.140;-75.616;2022-12-18T02:31:01;99602.19;;;0.73
74915;BMP280;63475;45.140;-75.616;2022-12-18T02:32:06;99604.78;;;0.73
74915;BMP280;63475;45.140;-75.616;2022-12-18T02:33:09;99599.16;;;0.71
74915;BMP280;63475;45.140;-75.616;2022-12-18T02:34:12;99601.38;;;0.69
74915;BMP280;63475;45.140;-75.616;2022-12-18T02:35:17;99604.72;;;0.69
74915;BMP280;63475;45.140;-75.616;2022-12-18T02:36:20;99607.34;;;0.69
74915;BMP280;63475;45.140;-75.616;2022-12-18T02:37:23;99585.25;;;0.60
74915;BMP280;63475;45.140;-75.616;2022-12-18T02:38:26;99575.41;;;0.50
74915;BMP280;63475;45.140;-75.616;2022-12-18T02:39:29;99605.50;;;0.70
74915;BMP280;63475;45.140;-75.616;2022-12-18T02:40:31;99591.97;;;0.61
74915;BMP280;63475;45.140;-75.616;2022-12-18T02:41:32;99607.34;;;0.69
74915;BMP280;63475;45.140;-75.616;2022-12-18T02:42:34;99603.94;;;0.65
74915;BMP280;63475;45.140;-75.616;2022-12-18T02:43:35;99613.66;;;0.68
74915;BMP280;63475;45.140;-75.616;2022-12-18T02:44:47;99569.34;;;0.42
74915;BMP280;63475;45.140;-75.616;2022-12-18T02:45:54;99614.81;;;0.71
74915;BMP280;63475;45.140;-75.616;2022-12-18T02:46:55;99611.09;;;0.72
74915;BMP280;63475;45.140;-75.616;2022-12-18T02:47:56;99617.81;;;0.73
74915;BMP280;63475;45.140;-75.616;2022-12-18T02:49:34;99617.41;;;0.71
74915;BMP280;63475;45.140;-75.616;2022-12-18T02:51:08;99612.91;;;0.68
74915;BMP280;63475;45.140;-75.616;2022-12-18T02:54:08;99607.69;;;0.68
74915;BMP280;63475;45.140;-75.616;2022-12-18T02:56:39;99614.34;;;0.65
74915;BMP280;63475;45.140;-75.616;2022-12-18T02:57:48;99611.06;;;0.68
74915;BMP280;63475;45.140;-75.616;2022-12-18T02:59:08;99609.53;;;0.67
74915;BMP280;63475;45.140;-75.616;2022-12-18T03:00:40;99612.81;;;0.61
74915;BMP280;63475;45.140;-75.616;2022-12-18T03:02:19;99611.75;;;0.65
74915;BMP280;63475;45.140;-75.616;2022-12-18T03:03:31;99619.16;;;0.63
74915;BMP280;63475;45.140;-75.616;2022-12-18T03:04:48;99623.69;;;0.66
74915;BMP280;63475;45.140;-75.616;2022-12-18T03:05:55;99616.22;;;0.65
74915;BMP280;63475;45.140;-75.616;2022-12-18T03:06:59;99619.56;;;0.65
74915;BMP280;63475;45.140;-75.616;2022-12-18T03:08:08;99618.06;;;0.64
74915;BMP280;63475;45.140;-75.616;2022-12-18T03:09:15;99621.41;;;0.65
74915;BMP280;63475;45.140;-75.616;2022-12-18T03:10:24;99626.28;;;0.66
74915;BMP280;63475;45.140;-75.616;2022-12-18T03:11:28;99624.44;;;0.67
74915;BMP280;63475;45.140;-75.616;2022-12-18T03:12:56;99627.38;;;0.65
74915;BMP280;63475;45.140;-75.616;2022-12-18T03:13:59;99632.25;;;0.67
74915;BMP280;63475;45.140;-75.616;2022-12-18T03:16:24;99619.22;;;0.67
74915;BMP280;63475;45.140;-75.616;2022-12-18T03:17:27;99626.69;;;0.68
74915;BMP280;63475;45.140;-75.616;2022-12-18T03:19:37;99596.25;;;0.50
74915;BMP280;63475;45.140;-75.616;2022-12-18T03:20:42;99624.47;;;0.70
74915;BMP280;63475;45.140;-75.616;2022-12-18T03:21:49;99625.56;;;0.69
74915;BMP280;63475;45.140;-75.616;2022-12-18T03:22:59;99604.81;;;0.50
74915;BMP280;63475;45.140;-75.616;2022-12-18T03:24:06;99606.38;;;0.55
74915;BMP280;63475;45.140;-75.616;2022-12-18T03:25:11;99611.66;;;0.58
74915;BMP280;63475;45.140;-75.616;2022-12-18T03:26:16;99628.59;;;0.71
74915;BMP280;63475;45.140;-75.616;2022-12-18T03:27:20;99632.34;;;0.74
74915;BMP280;63475;45.140;-75.616;2022-12-18T03:28:22;99637.56;;;0.74
74915;BMP280;63475;45.140;-75.616;2022-12-18T03:29:37;99637.56;;;0.74
74915;BMP280;63475;45.140;-75.616;2022-12-18T03:30:40;99621.47;;;0.68
74915;BMP280;63475;45.140;-75.616;2022-12-18T03:31:51;99640.91;;;0.75
74915;BMP280;63475;45.140;-75.616;2022-12-18T03:33:02;99625.63;;;0.73
74915;BMP280;63475;45.140;-75.616;2022-12-18T03:34:09;99627.13;;;0.74
74915;BMP280;63475;45.140;-75.616;2022-12-18T03:35:15;99625.56;;;0.69
74915;BMP280;63475;45.140;-75.616;2022-12-18T03:36:17;99630.84;;;0.73
74915;BMP280;63475;45.140;-75.616;2022-12-18T03:37:19;99634.59;;;0.76
74915;BMP280;63475;45.140;-75.616;2022-12-18T03:38:20;99595.88;;;0.51
74915;BMP280;63475;45.140;-75.616;2022-12-18T03:39:21;99630.50;;;0.75
74915;BMP280;63475;45.140;-75.616;2022-12-18T03:40:37;99623.38;;;0.71
74915;BMP280;63475;45.140;-75.616;2022-12-18T03:41:55;99633.09;;;0.75
74915;BMP280;63475;45.140;-75.616;2022-12-18T03:43:09;99636.09;;;0.77
74915;BMP280;63475;45.140;-75.616;2022-12-18T03:44:21;99636.09;;;0.77
74915;BMP280;63475;45.140;-75.616;2022-12-18T03:45:31;99635.34;;;0.76
74915;BMP280;63475;45.140;-75.616;2022-12-18T03:46:47;99633.50;;;0.77
74915;BMP280;63475;45.140;-75.616;2022-12-18T03:48:05;99637.97;;;0.76
74915;BMP280;63475;45.140;-75.616;2022-12-18T03:50:47;99633.50;;;0.77
74915;BMP280;63475;45.140;-75.616;2022-12-18T03:51:53;99630.50;;;0.75
74915;BMP280;63475;45.140;-75.616;2022-12-18T03:54:05;99633.44;;;0.73
74915;BMP280;63475;45.140;-75.616;2022-12-18T03:55:09;99635.31;;;0.72
74915;BMP280;63475;45.140;-75.616;2022-12-18T03:56:12;99619.47;;;0.58
74915;BMP280;63475;45.140;-75.616;2022-12-18T03:57:20;99631.13;;;0.68
74915;BMP280;63475;45.140;-75.616;2022-12-18T03:58:24;99636.41;;;0.71
74915;BMP280;63475;45.140;-75.616;2022-12-18T03:59:27;99640.50;;;0.72
74915;BMP280;63475;45.140;-75.616;2022-12-18T04:00:30;99644.22;;;0.71
74915;BMP280;63475;45.140;-75.616;2022-12-18T04:01:34;99620.28;;;0.62
74915;BMP280;63475;45.140;-75.616;2022-12-18T04:02:38;99619.50;;;0.62
74915;BMP280;63475;45.140;-75.616;2022-12-18T04:03:42;99630.78;;;0.69
74915;BMP280;63475;45.140;-75.616;2022-12-18T04:04:44;99635.31;;;0.72
74915;BMP280;63475;45.140;-75.616;2022-12-18T04:05:50;99622.91;;;0.66
74915;BMP280;63475;45.140;-75.616;2022-12-18T04:06:52;99628.97;;;0.73
74915;BMP280;63475;45.140;-75.616;2022-12-18T04:07:54;99635.31;;;0.72
74915;BMP280;63475;45.140;-75.616;2022-12-18T04:08:57;99610.13;;;0.57
74915;BMP280;63475;45.140;-75.616;2022-12-18T04:10:00;99607.59;;;0.61
74915;BMP280;63475;45.140;-75.616;2022-12-18T04:11:02;99623.69;;;0.66
74915;BMP280;63475;45.140;-75.616;2022-12-18T04:12:03;99605.22;;;0.52
74915;BMP280;63475;45.140;-75.616;2022-12-18T04:13:04;99627.84;;;0.71
74915;BMP280;63475;45.140;-75.616;2022-12-18T04:14:05;99631.59;;;0.73
74915;BMP280;63475;45.140;-75.616;2022-12-18T04:15:07;99629.69;;;0.70
74915;BMP280;63475;45.140;-75.616;2022-12-18T04:16:08;99618.81;;;0.65
74915;BMP280;63475;45.140;-75.616;2022-12-18T04:17:09;99628.22;;;0.73
74915;BMP280;63475;45.140;-75.616;2022-12-18T04:18:10;99604.50;;;0.55
74915;BMP280;63475;45.140;-75.616;2022-12-18T04:19:11;99630.84;;;0.73
74915;BMP280;63475;45.140;-75.616;2022-12-18T04:20:12;99629.34;;;0.72
74915;BMP280;63475;45.140;-75.616;2022-12-18T04:21:13;99633.44;;;0.73
74915;BMP280;63475;45.140;-75.616;2022-12-18T04:22:14;99630.03;;;0.69
74915;BMP280;63475;45.140;-75.616;2022-12-18T04:23:15;99634.19;;;0.73
74915;BMP280;63475;45.140;-75.616;2022-12-18T04:24:16;99610.53;;;0.59
74915;BMP280;63475;45.140;-75.616;2022-12-18T04:25:17;99622.53;;;0.64
74915;BMP280;63475;45.140;-75.616;2022-12-18T04:26:18;99617.66;;;0.62
74915;BMP280;63475;45.140;-75.616;2022-12-18T04:27:19;99634.56;;;0.72
74915;BMP280;63475;45.140;-75.616;2022-12-18T04:28:21;99628.59;;;0.71
74915;BMP280;63475;45.140;-75.616;2022-12-18T04:29:22;99635.66;;;0.71
74915;BMP280;63475;45.140;-75.616;2022-12-18T04:30:22;99632.66;;;0.69
74915;BMP280;63475;45.140;-75.616;2022-12-18T04:31:23;99631.88;;;0.68
74915;BMP280;63475;45.140;-75.616;2022-12-18T04:32:24;99635.59;;;0.67
74915;BMP280;63475;45.140;-75.616;2022-12-18T04:33:25;99619.47;;;0.58
74915;BMP280;63475;45.140;-75.616;2022-12-18T04:34:26;99628.88;;;0.66
74915;BMP280;63475;45.140;-75.616;2022-12-18T04:35:27;99634.91;;;0.70
74915;BMP280;63475;45.140;-75.616;2022-12-18T04:36:28;99635.25;;;0.69
74915;BMP280;63475;45.140;-75.616;2022-12-18T04:37:29;99640.13;;;0.70
74915;BMP280;63475;45.140;-75.616;2022-12-18T04:38:30;99608.84;;;0.48
74915;BMP280;63475;45.140;-75.616;2022-12-18T04:39:31;99638.25;;;0.71
74915;BMP280;63475;45.140;-75.616;2022-12-18T04:40:32;99638.22;;;0.67
74915;BMP280;63475;45.140;-75.616;2022-12-18T04:41:33;99648.69;;;0.71
74915;BMP280;63475;45.140;-75.616;2022-12-18T04:42:34;99639.72;;;0.68
74915;BMP280;63475;45.140;-75.616;2022-12-18T04:43:35;99642.72;;;0.70
74915;BMP280;63475;45.140;-75.616;2022-12-18T04:44:36;99646.78;;;0.68
74915;BMP280;63475;45.140;-75.616;2022-12-18T04:45:37;99624.31;;;0.60
74915;BMP280;63475;45.140;-75.616;2022-12-18T04:46:38;99642.72;;;0.70
74915;BMP280;63475;45.140;-75.616;2022-12-18T04:47:39;99641.22;;;0.69
74915;BMP280;63475;45.140;-75.616;2022-12-18T04:48:40;99638.22;;;0.67
74915;BMP280;63475;45.140;-75.616;2022-12-18T04:49:40;99641.97;;;0.70
74915;BMP280;63475;45.140;-75.616;2022-12-18T04:50:41;99640.81;;;0.67
74915;BMP280;63475;45.140;-75.616;2022-12-18T04:51:42;99638.97;;;0.68
74915;BMP280;63475;45.140;-75.616;2022-12-18T04:52:43;99638.22;;;0.67
74915;BMP280;63475;45.140;-75.616;2022-12-18T04:53:44;99643.41;;;0.67
74915;BMP280;63475;45.140;-75.616;2022-12-18T04:54:45;99644.53;;;0.66
74915;BMP280;63475;45.140;-75.616;2022-12-18T04:55:46;99645.28;;;0.67
74915;BMP280;63475;45.140;-75.616;2022-12-18T04:56:47;99643.03;;;0.65
74915;BMP280;63475;45.140;-75.616;2022-12-18T04:57:48;99646.38;;;0.66
74915;BMP280;63475;45.140;-75.616;2022-12-18T04:58:49;99604.25;;;0.37
74915;BMP280;63475;45.140;-75.616;2022-12-18T04:59:50;99635.19;;;0.65
74915;BMP280;63475;45.140;-75.616;2022-12-18T05:00:50;99641.50;;;0.64
74915;BMP280;63475;45.140;-75.616;2022-12-18T05:01:51;99572.31;;;0.18
74915;BMP280;63475;45.140;-75.616;2022-12-18T05:02:52;99614.41;;;0.46
74915;BMP280;63475;45.140;-75.616;2022-12-18T05:03:53;99637.41;;;0.63
74915;BMP280;63475;45.140;-75.616;2022-12-18T05:04:54;99635.50;;;0.60
74915;BMP280;63475;45.140;-75.616;2022-12-18T05:05:55;99619.34;;;0.51
74915;BMP280;63475;45.140;-75.616;2022-12-18T05:06:56;99632.19;;;0.63
74915;BMP280;63475;45.140;-75.616;2022-12-18T05:07:57;99631.44;;;0.63
74915;BMP280;63475;45.140;-75.616;2022-12-18T05:08:58;99610.31;;;0.45
74915;BMP280;63475;45.140;-75.616;2022-12-18T05:09:59;99638.09;;;0.60
74915;BMP280;63475;45.140;-75.616;2022-12-18T05:11:02;99637.41;;;0.63
74915;BMP280;63475;45.140;-75.616;2022-12-18T05:12:03;99628.84;;;0.63
74915;BMP280;63475;45.140;-75.616;2022-12-18T05:13:04;99634.81;;;0.63
74915;BMP280;63475;45.140;-75.616;2022-12-18T05:14:05;99637.41;;;0.63
74915;BMP280;63475;45.140;-75.616;2022-12-18T05:15:07;99640.00;;;0.63
74915;BMP280;63475;45.140;-75.616;2022-12-18T05:16:08;99626.97;;;0.63
74915;BMP280;63475;45.140;-75.616;2022-12-18T05:17:09;99634.44;;;0.65
74915;BMP280;63475;45.140;-75.616;2022-12-18T05:18:10;99628.47;;;0.64
74915;BMP280;63475;45.140;-75.616;2022-12-18T05:19:11;99633.34;;;0.66
74915;BMP280;63475;45.140;-75.616;2022-12-18T05:20:11;99630.75;;;0.66
74915;BMP280;63475;45.140;-75.616;2022-12-18T05:21:12;99643.03;;;0.65
74915;BMP280;63475;45.140;-75.616;2022-12-18T05:22:13;99636.72;;;0.66
74915;BMP280;63475;45.140;-75.616;2022-12-18T05:23:14;99609.63;;;0.48
74915;BMP280;63475;45.140;-75.616;2022-12-18T05:24:15;99638.22;;;0.67
74915;BMP280;63475;45.140;-75.616;2022-12-18T05:25:16;99634.09;;;0.66
74915;BMP280;63475;45.140;-75.616;2022-12-18T05:26:18;99635.59;;;0.67
74915;BMP280;63475;45.140;-75.616;2022-12-18T05:27:19;99625.81;;;0.61
74915;BMP280;63475;45.140;-75.616;2022-12-18T05:28:21;99627.69;;;0.60
74915;BMP280;63475;45.140;-75.616;2022-12-18T05:29:23;99636.72;;;0.66
74915;BMP280;63475;45.140;-75.616;2022-12-18T05:30:24;99644.16;;;0.68
74915;BMP280;63475;45.140;-75.616;2022-12-18T05:31:25;99638.91;;;0.64
74915;BMP280;63475;45.140;-75.616;2022-12-18T05:32:26;99644.16;;;0.68
74915;BMP280;63475;45.140;-75.616;2022-12-18T05:33:30;99630.97;;;0.57
74915;BMP280;63475;45.140;-75.616;2022-12-18T05:34:31;99617.88;;;0.54
74915;BMP280;63475;45.140;-75.616;2022-12-18T05:35:33;99638.97;;;0.68
74915;BMP280;63475;45.140;-75.616;2022-12-18T05:36:34;99639.72;;;0.68
74915;BMP280;63475;45.140;-75.616;2022-12-18T05:37:35;99628.09;;;0.62
74915;BMP280;63475;45.140;-75.616;2022-12-18T05:38:38;99639.72;;;0.68
74915;BMP280;63475;45.140;-75.616;2022-12-18T05:39:39;99644.91;;;0.68
74915;BMP280;63475;45.140;-75.616;2022-12-18T05:40:42;99639.72;;;0.68
74915;BMP280;63475;45.140;-75.616;2022-12-18T05:41:43;99644.16;;;0.68
74915;BMP280;63475;45.140;-75.616;2022-12-18T05:42:44;99636.34;;;0.68
74915;BMP280;63475;45.140;-75.616;2022-12-18T05:43:45;99625.69;;;0.54
74915;BMP280;63475;45.140;-75.616;2022-12-18T05:44:46;99649.78;;;0.70
74915;BMP280;63475;45.140;-75.616;2022-12-18T05:45:49;99652.38;;;0.70
74915;BMP280;63475;45.140;-75.616;2022-12-18T05:46:50;99625.28;;;0.52
74915;BMP280;63475;45.140;-75.616;2022-12-18T05:47:50;99646.44;;;0.69
74915;BMP280;63475;45.140;-75.616;2022-12-18T05:48:51;99629.09;;;0.58
74915;BMP280;63475;45.140;-75.616;2022-12-18T05:49:52;99645.31;;;0.70
74915;BMP280;63475;45.140;-75.616;2022-12-18T05:50:53;99639.38;;;0.70
74915;BMP280;63475;45.140;-75.616;2022-12-18T05:51:54;99650.53;;;0.70
74915;BMP280;63475;45.140;-75.616;2022-12-18T05:52:55;99650.53;;;0.70
74915;BMP280;63475;45.140;-75.616;2022-12-18T05:53:56;99647.19;;;0.70
74915;BMP280;63475;45.140;-75.616;2022-12-18T05:54:57;99649.69;;;0.63
74915;BMP280;63475;45.140;-75.616;2022-12-18T05:56:01;99643.47;;;0.71
74915;BMP280;63475;45.140;-75.616;2022-12-18T05:57:02;99650.53;;;0.70
74915;BMP280;63475;45.140;-75.616;2022-12-18T05:58:04;99655.41;;;0.72
74915;BMP280;63475;45.140;-75.616;2022-12-18T05:59:05;99656.50;;;0.71
74915;BMP280;63475;45.140;-75.616;2022-12-18T06:00:06;99634.41;;;0.61
74915;BMP280;63475;45.140;-75.616;2022-12-18T06:01:13;99654.66;;;0.71
74915;BMP280;63475;45.140;-75.616;2022-12-18T06:02:14;99641.50;;;0.64
74915;BMP280;63475;45.140;-75.616;2022-12-18T06:03:15;99658.34;;;0.70
74915;BMP280;63475;45.140;-75.616;2022-12-18T06:04:16;99656.50;;;0.71
74915;BMP280;63475;45.140;-75.616;2022-12-18T06:05:17;99654.66;;;0.71
74915;BMP280;63475;45.140;-75.616;2022-12-18T06:06:26;99665.06;;;0.71
74915;BMP280;63475;45.140;-75.616;2022-12-18T06:07:27;99658.00;;;0.72
74915;BMP280;63475;45.140;-75.616;2022-12-18T06:08:28;99659.44;;;0.69
74915;BMP280;63475;45.140;-75.616;2022-12-18T06:09:29;99662.47;;;0.71
74915;BMP280;63475;45.140;-75.616;2022-12-18T06:10:30;99665.06;;;0.71
74915;BMP280;63475;45.140;-75.616;2022-12-18T06:11:31;99660.56;;;0.68
74915;BMP280;63475;45.140;-75.616;2022-12-18T06:12:32;99664.31;;;0.71
74915;BMP280;63475;45.140;-75.616;2022-12-18T06:13:36;99669.53;;;0.71
74915;BMP280;63475;45.140;-75.616;2022-12-18T06:14:37;99668.03;;;0.70
74915;BMP280;63475;45.140;-75.616;2022-12-18T06:15:38;99660.97;;;0.70
74915;BMP280;63475;45.140;-75.616;2022-12-18T06:16:39;99661.72;;;0.71
74915;BMP280;63475;45.140;-75.616;2022-12-18T06:17:40;99663.56;;;0.70
74915;BMP280;63475;45.140;-75.616;2022-12-18T06:18:41;99634.97;;;0.51
74915;BMP280;63475;45.140;-75.616;2022-12-18T06:19:42;99649.53;;;0.56
74915;BMP280;63475;45.140;-75.616;2022-12-18T06:20:43;99674.00;;;0.70